Time;durP1;ratioP1;P1;durP2;ratioP2;P2;SDS_P1;SDS_P2;PMS_P1;PMS_P2;Temp;Humidity;BMP_temperature;BMP_pressure;BME280_temperature;BME280_humidity;BME280_pressure;Samples;Min_cycle;Max_cycle;Signal;HPM_P1;HPM_P2
2022/06/13 00:00:13;;;;;;;8.65;4.70;;;;;;;;;;4974142;28;20037;-76
2022/06/13 00:02:39;;;;;;;6.72;4.75;;;;;;;;;;4972399;28;20038;-75
2022/06/13 00:05:07;;;;;;;6.25;4.72;;;;;;;;;;4972634;28;20027;-76
2022/06/13 00:07:33;;;;;;;8.70;4.38;;;;;;;;;;4973768;28;20050;-76
2022/06/13 00:09:58;;;;;;;4.40;4.00;;;;;;;;;;4972140;28;20761;-76
2022/06/13 00:12:25;;;;;;;8.90;4.15;;;;;;;;;;4972014;28;20039;-75
2022/06/13 00:14:51;;;;;;;7.22;4.20;;;;;;;;;;4973198;28;20030;-75
2022/06/13 00:17:16;;;;;;;6.05;3.58;;;;;;;;;;4973670;28;20482;-75
2022/06/13 00:19:42;;;;;;;8.13;3.72;;;;;;;;;;4971987;28;20387;-75
2022/06/13 00:22:07;;;;;;;5.65;3.70;;;;;;;;;;4980022;28;20061;-75
2022/06/13 00:24:33;;;;;;;5.45;4.07;;;;;;;;;;4991429;28;20026;-75
2022/06/13 00:27:00;;;;;;;5.15;3.65;;;;;;;;;;4990846;28;20065;-76
2022/06/13 00:29:25;;;;;;;5.50;3.60;;;;;;;;;;4991441;28;20038;-76
2022/06/13 00:31:51;;;;;;;5.47;3.83;;;;;;;;;;4992284;28;20049;-76
2022/06/13 00:34:16;;;;;;;4.93;3.35;;;;;;;;;;4990926;28;20061;-76
2022/06/13 00:36:42;;;;;;;6.63;3.58;;;;;;;;;;4990556;28;20026;-77
2022/06/13 00:39:08;;;;;;;5.70;3.45;;;;;;;;;;4991036;28;20037;-76
2022/06/13 00:41:37;;;;;;;3.72;3.42;;;;;;;;;;5007196;28;20036;-76
2022/06/13 00:44:33;;;;;;;5.50;3.45;;;;;;;;;;4992160;28;20146;-75
2022/06/13 00:47:01;;;;;;;6.50;3.20;;;;;;;;;;4989943;28;20034;-75
2022/06/13 00:49:39;;;;;;;3.85;3.28;;;;;;;;;;4992439;28;20053;-75
2022/06/13 00:52:23;;;;;;;3.92;2.70;;;;;;;;;;4992128;28;20367;-76
2022/06/13 00:54:51;;;;;;;5.65;3.53;;;;;;;;;;4992245;28;20027;-76
2022/06/13 00:57:20;;;;;;;5.25;3.38;;;;;;;;;;4990595;28;20027;-77
2022/06/13 00:59:49;;;;;;;7.18;3.10;;;;;;;;;;4991831;28;20172;-76
2022/06/13 01:02:14;;;;;;;4.20;3.00;;;;;;;;;;4992073;28;20041;-77
2022/06/13 01:04:40;;;;;;;3.50;3.20;;;;;;;;;;4992058;28;20030;-76
2022/06/13 01:07:09;;;;;;;6.93;3.20;;;;;;;;;;4991877;28;20037;-75
2022/06/13 01:12:27;;;;;;;6.65;2.95;;;;;;;;;;4992142;28;20096;-76
2022/06/13 01:15:02;;;;;;;3.45;3.10;;;;;;;;;;4991853;28;20030;-76
2022/06/13 01:17:45;;;;;;;7.90;3.33;;;;;;;;;;4990298;28;20124;-75
2022/06/13 01:20:37;;;;;;;3.78;2.72;;;;;;;;;;4991571;28;20034;-75
2022/06/13 01:23:18;;;;;;;5.30;2.72;;;;;;;;;;4975497;28;20491;-76
2022/06/13 01:26:08;;;;;;;3.15;2.83;;;;;;;;;;4970831;28;20167;-75
2022/06/13 01:28:55;;;;;;;6.63;2.72;;;;;;;;;;4971534;28;20050;-76
2022/06/13 01:31:30;;;;;;;3.63;3.00;;;;;;;;;;4971931;28;20027;-76
2022/06/13 01:34:34;;;;;;;3.55;2.72;;;;;;;;;;4970850;28;20027;-76
2022/06/13 01:37:09;;;;;;;3.45;2.47;;;;;;;;;;4971875;28;20376;-75
2022/06/13 01:39:53;;;;;;;4.05;2.97;;;;;;;;;;4970538;28;20022;-76
2022/06/13 01:42:38;;;;;;;3.30;2.75;;;;;;;;;;4970707;28;20034;-76
2022/06/13 01:45:21;;;;;;;2.83;2.50;;;;;;;;;;4970273;28;20037;-76
2022/06/13 01:48:11;;;;;;;8.55;2.60;;;;;;;;;;4970879;28;20022;-76
2022/06/13 01:50:51;;;;;;;3.65;2.83;;;;;;;;;;4974341;28;20030;-76
2022/06/13 01:53:47;;;;;;;3.72;2.70;;;;;;;;;;4975842;28;20041;-76
2022/06/13 01:56:14;;;;;;;5.45;2.90;;;;;;;;;;4970050;28;20027;-76
2022/06/13 01:58:44;;;;;;;6.65;2.92;;;;;;;;;;4969984;28;20572;-75
2022/06/13 02:01:31;;;;;;;4.30;2.60;;;;;;;;;;4970464;28;20034;-76
2022/06/13 02:04:25;;;;;;;6.72;3.20;;;;;;;;;;4971239;28;20027;-77
2022/06/13 02:07:14;;;;;;;4.63;3.17;;;;;;;;;;4968863;28;20066;-76
2022/06/13 02:09:55;;;;;;;5.10;2.88;;;;;;;;;;4970282;28;20055;-76
2022/06/13 02:12:23;;;;;;;;;;;;;;;;;;4955195;28;20054;-76
2022/06/13 02:14:59;;;;;;;3.90;2.63;;;;;;;;;;4969390;28;19953;-77
2022/06/13 02:17:31;;;;;;;5.88;2.45;;;;;;;;;;4970855;28;20475;-77
2022/06/13 02:20:02;;;;;;;;;;;;;;;;;;4970264;28;20026;-76
2022/06/13 02:22:51;;;;;;;5.07;2.80;;;;;;;;;;4980621;28;20362;-75
2022/06/13 02:25:19;;;;;;;3.33;2.88;;;;;;;;;;4989316;28;20057;-77
2022/06/13 02:28:04;;;;;;;4.18;2.78;;;;;;;;;;4988989;28;20054;-76
2022/06/13 02:30:34;;;;;;;4.95;2.92;;;;;;;;;;4989504;28;20088;-76
2022/06/13 02:33:09;;;;;;;3.08;2.42;;;;;;;;;;4990648;28;20399;-76
2022/06/13 02:35:48;;;;;;;3.30;2.90;;;;;;;;;;4988965;28;20030;-76
2022/06/13 02:38:39;;;;;;;7.82;6.97;;;;;;;;;;4988635;28;20029;-75
2022/06/13 02:41:12;;;;;;;3.13;2.83;;;;;;;;;;4988711;28;20054;-75
2022/06/13 02:43:41;;;;;;;4.72;2.70;;;;;;;;;;4989189;28;20382;-75
2022/06/13 02:46:17;;;;;;;4.05;2.85;;;;;;;;;;4990124;28;20383;-76
2022/06/13 02:48:50;;;;;;;5.05;3.55;;;;;;;;;;4990401;28;20106;-76
2022/06/13 02:51:18;;;;;;;6.43;3.63;;;;;;;;;;4989993;28;20030;-76
2022/06/13 02:53:50;;;;;;;4.90;4.00;;;;;;;;;;4988517;28;20026;-76
2022/06/13 02:56:21;;;;;;;4.20;3.78;;;;;;;;;;4989989;28;20022;-76
2022/06/13 02:59:01;;;;;;;7.22;3.53;;;;;;;;;;4988763;28;20544;-76
2022/06/13 03:01:47;;;;;;;5.97;4.15;;;;;;;;;;4988809;28;20050;-76
2022/06/13 03:04:25;;;;;;;7.10;4.30;;;;;;;;;;4988372;28;20176;-76
2022/06/13 03:07:17;;;;;;;7.97;4.63;;;;;;;;;;4989850;28;20027;-75
2022/06/13 03:10:12;;;;;;;6.32;4.28;;;;;;;;;;4988851;28;20037;-76
2022/06/13 03:12:56;;;;;;;4.43;4.03;;;;;;;;;;4988394;28;20034;-75
2022/06/13 03:15:57;;;;;;;6.20;4.50;;;;;;;;;;4988854;28;20389;-75
2022/06/13 03:18:28;;;;;;;5.50;4.40;;;;;;;;;;4988146;28;20441;-75
2022/06/13 03:21:04;;;;;;;15.63;5.65;;;;;;;;;;5004596;28;20474;-76
2022/06/13 03:23:38;;;;;;;6.85;4.10;;;;;;;;;;4971738;28;20027;-75
2022/06/13 03:26:37;;;;;;;4.38;3.97;;;;;;;;;;4970226;28;20027;-75
2022/06/13 03:29:22;;;;;;;7.53;4.20;;;;;;;;;;4969949;28;20057;-75
2022/06/13 03:32:12;;;;;;;7.45;4.47;;;;;;;;;;4970524;28;20533;-76
2022/06/13 03:34:42;;;;;;;4.65;4.25;;;;;;;;;;4969930;28;20039;-76
2022/06/13 03:37:22;;;;;;;5.43;4.38;;;;;;;;;;4970167;28;20475;-76
2022/06/13 03:39:53;;;;;;;5.40;4.55;;;;;;;;;;4969339;28;20431;-76
2022/06/13 03:42:29;;;;;;;8.77;4.70;;;;;;;;;;4970533;28;20428;-76
2022/06/13 03:45:17;;;;;;;8.20;5.00;;;;;;;;;;4968928;28;20044;-76
2022/06/13 03:48:09;;;;;;;5.35;4.15;;;;;;;;;;4969191;28;20030;-75
2022/06/13 03:50:41;;;;;;;8.07;4.50;;;;;;;;;;4967239;28;20479;-76
2022/06/13 03:53:15;;;;;;;7.03;4.50;;;;;;;;;;4969943;28;20053;-75
2022/06/13 03:55:49;;;;;;;6.95;4.13;;;;;;;;;;4970187;28;20130;-76
2022/06/13 03:58:19;;;;;;;6.93;3.90;;;;;;;;;;4969860;28;20321;-75
2022/06/13 04:01:11;;;;;;;5.45;3.95;;;;;;;;;;4968852;28;20491;-75
2022/06/13 04:03:37;;;;;;;4.55;4.13;;;;;;;;;;4971300;28;20062;-76
2022/06/13 04:06:06;;;;;;;11.55;4.68;;;;;;;;;;4971815;28;20217;-78
2022/06/13 04:08:35;;;;;;;9.57;4.28;;;;;;;;;;4971839;28;20077;-75
2022/06/13 04:11:27;;;;;;;10.02;4.78;;;;;;;;;;4971966;28;20189;-76
2022/06/13 04:14:25;;;;;;;9.38;5.28;;;;;;;;;;4971575;28;20023;-74
2022/06/13 04:17:03;;;;;;;8.77;5.78;;;;;;;;;;4960522;28;20129;-77
2022/06/13 04:20:01;;;;;;;9.32;5.20;;;;;;;;;;4956459;28;20487;-76
2022/06/13 04:22:36;;;;;;;10.02;4.90;;;;;;;;;;4982473;28;20030;-76
2022/06/13 04:25:29;;;;;;;6.85;4.63;;;;;;;;;;4990974;28;20478;-75
2022/06/13 04:28:18;;;;;;;16.67;6.07;;;;;;;;;;4992301;28;20050;-76
2022/06/13 04:30:44;;;;;;;7.40;4.95;;;;;;;;;;4991271;28;20069;-76
2022/06/13 04:33:19;;;;;;;9.48;5.25;;;;;;;;;;4990770;28;20136;-75
2022/06/13 04:35:48;;;;;;;9.18;4.95;;;;;;;;;;4992326;28;20121;-75
2022/06/13 04:38:16;;;;;;;7.97;5.38;;;;;;;;;;4992435;28;20054;-76
2022/06/13 04:40:47;;;;;;;4.93;4.13;;;;;;;;;;4992237;28;20022;-77
2022/06/13 04:43:15;;;;;;;7.82;5.88;;;;;;;;;;4990929;28;20093;-76
2022/06/13 04:45:46;;;;;;;9.07;5.07;;;;;;;;;;4992292;28;20061;-78
2022/06/13 04:48:12;;;;;;;7.93;5.35;;;;;;;;;;4992154;28;20572;-75
2022/06/13 04:50:41;;;;;;;4.80;4.20;;;;;;;;;;4991247;28;20034;-77
2022/06/13 04:53:15;;;;;;;8.82;5.05;;;;;;;;;;4992005;28;20030;-77
2022/06/13 04:55:44;;;;;;;13.25;4.35;;;;;;;;;;4992303;28;20053;-76
2022/06/13 04:58:30;;;;;;;6.03;4.88;;;;;;;;;;4990810;28;20123;-76
2022/06/13 05:01:34;;;;;;;5.80;4.63;;;;;;;;;;4990490;28;20022;-74
2022/06/13 05:04:04;;;;;;;6.70;4.78;;;;;;;;;;4989315;28;20098;-76
2022/06/13 05:06:38;;;;;;;8.43;5.10;;;;;;;;;;4990336;28;20125;-77
2022/06/13 05:09:08;;;;;;;12.30;5.45;;;;;;;;;;4991549;28;20022;-77
2022/06/13 05:11:45;;;;;;;8.73;5.13;;;;;;;;;;4990676;28;20034;-77
2022/06/13 05:14:16;;;;;;;7.53;5.15;;;;;;;;;;4991554;28;20482;-76
2022/06/13 05:17:09;;;;;;;11.03;5.37;;;;;;;;;;4987902;28;20022;-79
2022/06/13 05:19:37;;;;;;;10.65;4.75;;;;;;;;;;4985620;28;20033;-77
2022/06/13 05:22:15;;;;;;;8.63;5.65;;;;;;;;;;4972474;28;20267;-75
2022/06/13 05:24:59;;;;;;;9.88;6.03;;;;;;;;;;4988803;28;20050;-74
2022/06/13 05:27:29;;;;;;;10.23;5.63;;;;;;;;;;4983871;28;20062;-76
2022/06/13 05:29:54;;;;;;;6.63;4.40;;;;;;;;;;4990425;28;20104;-76
2022/06/13 05:32:27;;;;;;;6.57;4.50;;;;;;;;;;4990388;28;20038;-77
2022/06/13 05:34:53;;;;;;;5.00;4.60;;;;;;;;;;4986370;28;20038;-75
2022/06/13 05:37:20;;;;;;;14.00;5.75;;;;;;;;;;4991325;28;20494;-77
2022/06/13 05:39:46;;;;;;;5.03;4.53;;;;;;;;;;4989035;28;20120;-76
2022/06/13 05:42:14;;;;;;;5.55;4.25;;;;;;;;;;5005614;28;20034;-81
2022/06/13 05:44:41;;;;;;;8.27;7.38;;;;;;;;;;4989420;28;20517;-76
2022/06/13 05:47:20;;;;;;;6.55;4.28;;;;;;;;;;4989266;28;20062;-77
2022/06/13 05:49:47;;;;;;;7.93;4.80;;;;;;;;;;4982716;28;20038;-77
2022/06/13 05:52:13;;;;;;;7.13;4.18;;;;;;;;;;4983763;28;20045;-76
2022/06/13 05:54:40;;;;;;;7.05;4.20;;;;;;;;;;4989073;28;20037;-74
2022/06/13 05:57:06;;;;;;;8.10;5.30;;;;;;;;;;4985556;28;20027;-75
2022/06/13 05:59:33;;;;;;;8.35;3.65;;;;;;;;;;4977193;28;20071;-75
2022/06/13 06:01:58;;;;;;;10.45;4.85;;;;;;;;;;4993907;28;20030;-76
2022/06/13 06:04:27;;;;;;;6.65;3.80;;;;;;;;;;4988018;28;20031;-77
2022/06/13 06:06:55;;;;;;;5.80;3.97;;;;;;;;;;4981993;28;20368;-77
2022/06/13 06:09:21;;;;;;;18.75;3.72;;;;;;;;;;4983855;28;20546;-74
2022/06/13 06:11:48;;;;;;;8.52;3.67;;;;;;;;;;4985058;28;20116;-75
2022/06/13 06:14:14;;;;;;;5.00;4.18;;;;;;;;;;4986882;28;20030;-78
2022/06/13 06:16:40;;;;;;;7.20;4.85;;;;;;;;;;4986251;28;20038;-75
2022/06/13 06:19:06;;;;;;;6.63;3.78;;;;;;;;;;4981404;28;20075;-72
2022/06/13 06:21:33;;;;;;;11.15;4.70;;;;;;;;;;4980224;28;20065;-77
2022/06/13 06:24:03;;;;;;;20.23;10.60;;;;;;;;;;4982331;28;20442;-73
2022/06/13 06:26:30;;;;;;;9.70;4.55;;;;;;;;;;4983507;28;20751;-76
2022/06/13 06:28:58;;;;;;;5.97;4.03;;;;;;;;;;4980103;28;20485;-76
2022/06/13 06:31:24;;;;;;;5.00;3.80;;;;;;;;;;4980565;28;20022;-74
2022/06/13 06:33:50;;;;;;;12.05;5.35;;;;;;;;;;4997965;28;20135;-77
2022/06/13 06:36:17;;;;;;;5.22;3.92;;;;;;;;;;4983259;28;20022;-76
2022/06/13 06:38:43;;;;;;;4.93;3.70;;;;;;;;;;4982363;28;20110;-76
2022/06/13 06:41:11;;;;;;;6.32;3.88;;;;;;;;;;4983235;28;20069;-75
2022/06/13 06:43:41;;;;;;;11.25;3.90;;;;;;;;;;4996951;28;20038;-76
2022/06/13 06:46:09;;;;;;;5.47;4.05;;;;;;;;;;4991854;28;20041;-71
2022/06/13 06:48:36;;;;;;;6.78;3.58;;;;;;;;;;4967165;28;20041;-76
2022/06/13 06:51:09;;;;;;;10.40;4.28;;;;;;;;;;4988861;28;20069;-76
2022/06/13 07:01:50;;;;;;;9.70;3.88;;;;;;;;;;4984014;28;20530;-77
2022/06/13 07:04:16;;;;;;;18.95;9.43;;;;;;;;;;4978888;28;20042;-75
2022/06/13 07:06:42;;;;;;;5.85;4.05;;;;;;;;;;4981765;28;20125;-78
2022/06/13 07:09:10;;;;;;;13.40;4.95;;;;;;;;;;4981362;28;20398;-72
2022/06/13 07:14:31;;;;;;;8.55;4.63;;;;;;;;;;4978007;28;20115;-73
2022/06/13 07:16:59;;;;;;;8.00;4.32;;;;;;;;;;4983290;28;20046;-72
2022/06/13 07:19:26;;;;;;;7.65;4.38;;;;;;;;;;4986107;28;20122;-75
2022/06/13 07:21:53;;;;;;;6.70;3.80;;;;;;;;;;4967474;28;20092;-75
2022/06/13 07:24:20;;;;;;;8.13;3.80;;;;;;;;;;4992668;28;20057;-74
2022/06/13 07:26:49;;;;;;;8.07;4.18;;;;;;;;;;4992502;28;20018;-73
2022/06/13 07:29:18;;;;;;;6.13;4.07;;;;;;;;;;4981385;28;20075;-77
2022/06/13 07:31:48;;;;;;;8.55;4.45;;;;;;;;;;4981020;28;20037;-78
2022/06/13 07:34:18;;;;;;;7.03;3.92;;;;;;;;;;4989151;28;20041;-73
2022/06/13 07:36:45;;;;;;;8.45;5.00;;;;;;;;;;4999194;28;20034;-73
2022/06/13 07:39:12;;;;;;;5.00;3.45;;;;;;;;;;4978041;28;20502;-74
2022/06/13 07:41:43;;;;;;;6.07;4.07;;;;;;;;;;4983703;28;20058;-76
2022/06/13 07:44:38;;;;;;;9.63;5.05;;;;;;;;;;4980568;28;20034;-72
2022/06/13 07:47:05;;;;;;;13.73;3.90;;;;;;;;;;4981275;28;20034;-75
2022/06/13 07:49:32;;;;;;;8.13;3.50;;;;;;;;;;4983736;28;20034;-75
2022/06/13 07:51:58;;;;;;;11.25;3.60;;;;;;;;;;4986553;28;20088;-76
2022/06/13 07:54:26;;;;;;;14.45;4.55;;;;;;;;;;4983305;28;20734;-74
2022/06/13 07:56:52;;;;;;;7.05;3.47;;;;;;;;;;4981039;28;20143;-76
2022/06/13 07:59:23;;;;;;;8.75;3.78;;;;;;;;;;4981889;28;20122;-75
2022/06/13 08:01:49;;;;;;;8.20;3.35;;;;;;;;;;4981995;28;20058;-74
2022/06/13 08:04:17;;;;;;;4.53;2.60;;;;;;;;;;4984659;28;20096;-75
2022/06/13 08:06:43;;;;;;;6.05;2.80;;;;;;;;;;4960919;28;20036;-75
2022/06/13 08:09:12;;;;;;;7.20;2.90;;;;;;;;;;4981048;28;20522;-76
2022/06/13 08:11:45;;;;;;;10.65;3.33;;;;;;;;;;4984603;28;20952;-76
2022/06/13 08:14:11;;;;;;;6.18;3.22;;;;;;;;;;4977018;28;20062;-73
2022/06/13 08:16:38;;;;;;;5.35;2.63;;;;;;;;;;4982732;28;20038;-73
2022/06/13 08:19:04;;;;;;;6.65;3.45;;;;;;;;;;4990851;28;20073;-73
2022/06/13 08:21:40;;;;;;;8.18;3.28;;;;;;;;;;4973986;28;20033;-75
2022/06/13 08:24:07;;;;;;;9.02;3.63;;;;;;;;;;4978020;28;20482;-76
2022/06/13 08:26:35;;;;;;;11.07;4.85;;;;;;;;;;4992908;28;20445;-72
2022/06/13 08:29:01;;;;;;;7.57;3.80;;;;;;;;;;4962042;28;20054;-74
2022/06/13 08:31:26;;;;;;;9.95;3.80;;;;;;;;;;4999718;28;20044;-72
2022/06/13 08:33:53;;;;;;;8.95;4.03;;;;;;;;;;4977137;28;20026;-73
2022/06/13 08:36:21;;;;;;;13.02;4.78;;;;;;;;;;4982096;28;20884;-74
2022/06/13 08:38:47;;;;;;;10.88;4.03;;;;;;;;;;4993355;28;20525;-72
2022/06/13 08:41:22;;;;;;;12.77;5.25;;;;;;;;;;4979441;28;20137;-74
2022/06/13 08:44:19;;;;;;;9.32;4.03;;;;;;;;;;4980136;28;20918;-76
2022/06/13 08:46:58;;;;;;;9.20;3.20;;;;;;;;;;4977770;28;20037;-74
2022/06/13 08:49:41;;;;;;;5.63;2.97;;;;;;;;;;4975917;28;20026;-73
2022/06/13 08:52:35;;;;;;;8.52;3.20;;;;;;;;;;4983523;28;20038;-72
2022/06/13 08:55:27;;;;;;;6.22;2.40;;;;;;;;;;4986934;28;20066;-75
2022/06/13 08:58:17;;;;;;;8.40;2.63;;;;;;;;;;4979545;28;20045;-72
2022/06/13 09:01:09;;;;;;;6.47;2.65;;;;;;;;;;4982441;28;20026;-75
2022/06/13 09:03:59;;;;;;;6.03;2.03;;;;;;;;;;4977160;28;20038;-73
2022/06/13 09:06:47;;;;;;;4.55;2.33;;;;;;;;;;4979330;28;20577;-73
2022/06/13 09:09:20;;;;;;;5.10;2.35;;;;;;;;;;4997662;28;20038;-74
2022/06/13 09:11:59;;;;;;;6.40;2.40;;;;;;;;;;4987183;28;20093;-78
2022/06/13 09:14:32;;;;;;;11.88;3.58;;;;;;;;;;4979821;28;20030;-76
2022/06/13 09:17:14;;;;;;;8.88;2.70;;;;;;;;;;4987625;28;20023;-77
2022/06/13 09:19:54;;;;;;;6.68;3.03;;;;;;;;;;4981800;28;20038;-75
2022/06/13 09:23:01;;;;;;;7.32;3.42;;;;;;;;;;4984152;28;20033;-75
2022/06/13 09:25:48;;;;;;;9.57;3.25;;;;;;;;;;4988873;28;20121;-77
2022/06/13 09:28:37;;;;;;;11.52;3.03;;;;;;;;;;4986637;28;20150;-75
2022/06/13 09:31:08;;;;;;;6.72;2.85;;;;;;;;;;4964276;28;20466;-75
2022/06/13 09:33:40;;;;;;;12.45;3.63;;;;;;;;;;4974174;28;20071;-75
2022/06/13 09:36:33;;;;;;;11.00;3.47;;;;;;;;;;4961598;28;20051;-72
2022/06/13 09:39:05;;;;;;;8.05;2.80;;;;;;;;;;4950422;28;21268;-73
2022/06/13 09:41:47;;;;;;;11.13;3.60;;;;;;;;;;4951360;28;20405;-73
2022/06/13 09:44:39;;;;;;;10.65;4.10;;;;;;;;;;4946138;28;20029;-75
2022/06/13 09:47:39;;;;;;;8.20;4.10;;;;;;;;;;4952794;28;20043;-76
2022/06/13 09:50:30;;;;;;;;;;;;;;;;;;4948366;28;20046;-72
2022/06/13 09:53:11;;;;;;;7.57;2.75;;;;;;;;;;4963337;28;20008;-76
2022/06/13 09:56:01;;;;;;;11.67;3.63;;;;;;;;;;4946308;28;20125;-77
2022/06/13 09:58:33;;;;;;;9.27;3.65;;;;;;;;;;4946476;28;20272;-75
2022/06/13 10:01:27;;;;;;;8.80;3.35;;;;;;;;;;4952172;28;20153;-76
2022/06/13 10:04:14;;;;;;;7.82;3.22;;;;;;;;;;4944719;28;20035;-77
2022/06/13 10:06:46;;;;;;;11.70;3.80;;;;;;;;;;4946603;28;20141;-75
2022/06/13 10:09:40;;;;;;;9.18;4.05;;;;;;;;;;4943188;28;20074;-74
2022/06/13 10:12:30;;;;;;;7.55;2.65;;;;;;;;;;4951450;28;20031;-75
2022/06/13 10:15:05;;;;;;;16.00;2.97;;;;;;;;;;4967136;28;20521;-76
2022/06/13 10:17:39;;;;;;;14.32;4.95;;;;;;;;;;4958645;28;20643;-77
2022/06/13 10:20:37;;;;;;;10.13;3.83;;;;;;;;;;4952554;28;20320;-76
2022/06/13 10:23:40;;;;;;;11.75;3.13;;;;;;;;;;4951096;28;20566;-75
2022/06/13 10:26:42;;;;;;;5.95;3.08;;;;;;;;;;4964292;28;20031;-77
2022/06/13 10:29:31;;;;;;;7.50;2.72;;;;;;;;;;4973233;28;20458;-76
2022/06/13 10:32:16;;;;;;;11.52;2.75;;;;;;;;;;4998005;28;20069;-76
2022/06/13 10:35:11;;;;;;;5.68;3.35;;;;;;;;;;4978966;28;20054;-75
2022/06/13 10:37:57;;;;;;;6.65;3.88;;;;;;;;;;4977464;28;20038;-75
2022/06/13 10:40:25;;;;;;;7.75;2.83;;;;;;;;;;4985933;28;20030;-76
2022/06/13 10:42:51;;;;;;;7.05;3.15;;;;;;;;;;4976903;28;20034;-75
2022/06/13 10:45:19;;;;;;;9.55;2.53;;;;;;;;;;4975460;28;20022;-76
2022/06/13 10:48:25;;;;;;;9.20;3.10;;;;;;;;;;4977043;28;20038;-74
2022/06/13 10:50:57;;;;;;;16.45;3.13;;;;;;;;;;5018955;28;20034;-76
2022/06/13 10:53:47;;;;;;;9.90;3.55;;;;;;;;;;4976232;28;20117;-72
2022/06/13 10:56:45;;;;;;;5.35;2.58;;;;;;;;;;4978656;28;20045;-75
2022/06/13 10:59:41;;;;;;;7.13;2.70;;;;;;;;;;4989182;28;20069;-74
2022/06/13 11:02:23;;;;;;;10.13;3.15;;;;;;;;;;4976555;28;20057;-75
2022/06/13 11:05:13;;;;;;;6.35;2.95;;;;;;;;;;4973309;28;20058;-74
2022/06/13 11:07:52;;;;;;;7.05;3.25;;;;;;;;;;4998850;28;20042;-74
2022/06/13 11:10:38;;;;;;;10.27;3.10;;;;;;;;;;4976593;28;20030;-73
2022/06/13 11:13:12;;;;;;;10.38;3.03;;;;;;;;;;4967670;28;20081;-76
2022/06/13 11:24:52;;;;;;;13.27;3.85;;;;;;;;;;4982485;28;20038;-76
2022/06/13 11:27:40;;;;;;;11.98;3.42;;;;;;;;;;4995886;28;20073;-73
2022/06/13 11:30:31;;;;;;;11.85;3.78;;;;;;;;;;4962786;28;20030;-75
2022/06/13 11:33:15;;;;;;;10.15;4.55;;;;;;;;;;4981874;28;20764;-75
2022/06/13 11:36:22;;;;;;;11.70;4.97;;;;;;;;;;4978458;28;20038;-77
2022/06/13 11:39:00;;;;;;;10.93;5.30;;;;;;;;;;4980169;28;20446;-72
2022/06/13 11:41:43;;;;;;;9.03;4.17;;;;;;;;;;4985577;28;20105;-73
2022/06/13 11:44:21;;;;;;;11.27;3.78;;;;;;;;;;4992870;28;20630;-76
2022/06/13 11:46:54;;;;;;;10.90;4.13;;;;;;;;;;4986761;28;20108;-75
2022/06/13 11:49:42;;;;;;;9.70;3.75;;;;;;;;;;4976175;28;20041;-76
2022/06/13 11:52:13;;;;;;;15.57;4.85;;;;;;;;;;4963956;28;21054;-73
2022/06/13 11:54:55;;;;;;;12.70;5.18;;;;;;;;;;4986397;28;20054;-73
2022/06/13 11:57:27;;;;;;;8.80;4.53;;;;;;;;;;5003443;28;20042;-73
2022/06/13 12:00:25;;;;;;;6.70;3.00;;;;;;;;;;4983711;28;20037;-74
2022/06/13 12:02:51;;;;;;;5.15;2.58;;;;;;;;;;4985549;28;20505;-70
2022/06/13 12:05:22;;;;;;;10.10;3.15;;;;;;;;;;4981466;28;20117;-74
2022/06/13 12:07:55;;;;;;;9.27;3.13;;;;;;;;;;4979060;28;20062;-73
2022/06/13 12:10:31;;;;;;;9.57;3.05;;;;;;;;;;4983827;28;20149;-73
2022/06/13 12:13:23;;;;;;;13.38;3.33;;;;;;;;;;4986180;28;20441;-74
2022/06/13 12:15:57;;;;;;;8.38;3.25;;;;;;;;;;4985373;28;20027;-73
2022/06/13 12:18:32;;;;;;;12.38;3.47;;;;;;;;;;4994022;28;20401;-74
2022/06/13 12:21:17;;;;;;;9.75;3.85;;;;;;;;;;4987028;28;20040;-72
2022/06/13 12:24:20;;;;;;;10.35;3.63;;;;;;;;;;4986914;28;20041;-74
2022/06/13 12:27:14;;;;;;;13.63;7.97;;;;;;;;;;4990624;28;20045;-75
2022/06/13 12:30:31;;;;;;;11.82;3.65;;;;;;;;;;4989565;28;20049;-74
2022/06/13 12:33:20;;;;;;;8.15;3.58;;;;;;;;;;4996156;28;20038;-74
2022/06/13 12:36:18;;;;;;;11.35;3.97;;;;;;;;;;5002830;28;20604;-76
2022/06/13 12:38:53;;;;;;;8.13;3.63;;;;;;;;;;4990644;28;20053;-73
2022/06/13 12:41:33;;;;;;;6.70;2.90;;;;;;;;;;4988198;28;20041;-69
2022/06/13 12:44:15;;;;;;;10.88;3.33;;;;;;;;;;4984343;28;20034;-74
2022/06/13 12:47:18;;;;;;;10.18;5.10;;;;;;;;;;4986808;28;21184;-73
2022/06/13 12:50:05;;;;;;;12.93;4.72;;;;;;;;;;4982697;28;20046;-74
2022/06/13 12:52:53;;;;;;;6.03;3.20;;;;;;;;;;5000274;28;20390;-73
2022/06/13 12:55:46;;;;;;;8.93;2.72;;;;;;;;;;4980534;28;20045;-72
2022/06/13 12:58:31;;;;;;;6.05;2.47;;;;;;;;;;4981548;28;20038;-73
2022/06/13 13:01:10;;;;;;;5.88;2.60;;;;;;;;;;4982554;28;20058;-72
2022/06/13 13:03:39;;;;;;;9.07;3.03;;;;;;;;;;4981068;28;20030;-73
2022/06/13 13:06:05;;;;;;;7.43;3.53;;;;;;;;;;4988275;28;20018;-73
2022/06/13 13:08:56;;;;;;;9.45;2.95;;;;;;;;;;4985231;28;20022;-76
2022/06/13 13:11:40;;;;;;;5.43;3.00;;;;;;;;;;4998465;28;20025;-75
2022/06/13 13:14:37;;;;;;;11.25;4.13;;;;;;;;;;4996359;28;20269;-75
2022/06/13 13:17:40;;;;;;;9.05;4.75;;;;;;;;;;4991599;28;20050;-77
2022/06/13 13:20:15;;;;;;;10.27;5.30;;;;;;;;;;4981975;28;20116;-76
2022/06/13 13:23:14;;;;;;;10.85;4.05;;;;;;;;;;4990439;28;20026;-76
2022/06/13 13:25:58;;;;;;;7.70;3.58;;;;;;;;;;4992048;28;20064;-74
2022/06/13 13:28:55;;;;;;;5.88;2.88;;;;;;;;;;4984720;28;20373;-75
2022/06/13 13:31:41;;;;;;;10.00;3.22;;;;;;;;;;4984833;28;20025;-72
2022/06/13 13:34:22;;;;;;;6.07;2.05;;;;;;;;;;4980689;28;20042;-74
2022/06/13 13:37:02;;;;;;;;;;;;;;;;;;5022843;28;20034;-76
2022/06/13 13:39:50;;;;;;;5.35;1.92;;;;;;;;;;5010027;28;20369;-74
2022/06/13 13:42:35;;;;;;;5.05;2.03;;;;;;;;;;4994029;28;20026;-75
2022/06/13 13:45:22;;;;;;;6.97;2.03;;;;;;;;;;4975545;28;20026;-74
2022/06/13 13:47:53;;;;;;;5.10;2.20;;;;;;;;;;4988504;28;20023;-75
2022/06/13 13:50:23;;;;;;;3.22;1.95;;;;;;;;;;4993335;28;20155;-75
2022/06/13 13:52:54;;;;;;;4.07;1.88;;;;;;;;;;5015943;28;20034;-74
2022/06/13 13:55:49;;;;;;;3.67;1.40;;;;;;;;;;4996635;28;20497;-75
2022/06/13 13:58:36;;;;;;;2.03;1.30;;;;;;;;;;4990695;28;20302;-76
2022/06/13 14:01:32;;;;;;;3.58;1.92;;;;;;;;;;4984344;28;20045;-76
2022/06/13 14:04:07;;;;;;;2.95;1.25;;;;;;;;;;4968468;28;20045;-75
2022/06/13 14:06:40;;;;;;;3.67;1.40;;;;;;;;;;4968721;28;20539;-76
2022/06/13 14:09:07;;;;;;;3.85;1.27;;;;;;;;;;4968780;28;20037;-76
2022/06/13 14:12:08;;;;;;;1.40;1.00;;;;;;;;;;4972103;28;20027;-75
2022/06/13 14:14:49;;;;;;;6.85;3.55;;;;;;;;;;4988696;28;20101;-74
2022/06/13 14:17:46;;;;;;;3.40;1.40;;;;;;;;;;4973789;28;20058;-74
2022/06/13 14:20:41;;;;;;;2.03;1.40;;;;;;;;;;4972885;28;20081;-76
2022/06/13 14:23:10;;;;;;;3.80;1.30;;;;;;;;;;4993967;28;20498;-75
2022/06/13 14:25:41;;;;;;;2.03;0.97;;;;;;;;;;4990301;28;20061;-76
2022/06/13 14:28:16;;;;;;;2.65;1.00;;;;;;;;;;4988271;28;20050;-75
2022/06/13 14:36:54;;;;;;;5.82;1.60;;;;;;;;;;4989651;28;20253;-74
2022/06/13 14:39:32;;;;;;;5.00;1.25;;;;;;;;;;4987975;28;20024;-76
2022/06/13 14:42:09;;;;;;;5.85;1.73;;;;;;;;;;4982760;28;20347;-76
2022/06/13 14:44:50;;;;;;;4.72;1.33;;;;;;;;;;4987553;28;20049;-77
2022/06/13 14:47:42;;;;;;;2.20;1.25;;;;;;;;;;4986044;28;20172;-76
2022/06/13 14:50:08;;;;;;;3.13;1.40;;;;;;;;;;5008600;28;20046;-74
2022/06/13 14:52:34;;;;;;;4.93;1.40;;;;;;;;;;4988017;28;20030;-75
2022/06/13 14:55:03;;;;;;;9.93;2.10;;;;;;;;;;4972883;28;20089;-73
2022/06/13 14:57:35;;;;;;;5.85;1.83;;;;;;;;;;4988345;28;20033;-74
2022/06/13 15:00:08;;;;;;;3.50;2.08;;;;;;;;;;4986237;28;20038;-75
2022/06/13 15:02:53;;;;;;;7.25;1.80;;;;;;;;;;4987803;28;20122;-74
2022/06/13 15:05:23;;;;;;;4.93;1.90;;;;;;;;;;4982398;28;20030;-75
2022/06/13 15:08:07;;;;;;;5.00;2.40;;;;;;;;;;4970520;28;20068;-74
2022/06/13 15:10:54;;;;;;;6.18;2.10;;;;;;;;;;4969539;28;20034;-75
2022/06/13 15:13:26;;;;;;;3.88;1.75;;;;;;;;;;4968847;28;20047;-74
2022/06/13 15:15:58;;;;;;;6.55;2.47;;;;;;;;;;4969746;28;20038;-74
2022/06/13 15:18:29;;;;;;;2.65;1.90;;;;;;;;;;4979382;28;20427;-75
2022/06/13 15:20:56;;;;;;;5.68;2.20;;;;;;;;;;4969045;28;20022;-75
2022/06/13 15:23:48;;;;;;;5.30;2.10;;;;;;;;;;4985595;28;20065;-73
2022/06/13 15:26:26;;;;;;;3.05;1.90;;;;;;;;;;5001938;28;20030;-75
2022/06/13 15:29:08;;;;;;;5.53;2.30;;;;;;;;;;4975029;28;20055;-74
2022/06/13 15:31:39;;;;;;;5.72;2.20;;;;;;;;;;4968656;28;20122;-76
2022/06/13 15:34:22;;;;;;;4.82;2.33;;;;;;;;;;4971298;28;20027;-75
2022/06/13 15:37:04;;;;;;;3.35;1.92;;;;;;;;;;4968261;28;20038;-75
2022/06/13 15:39:34;;;;;;;6.20;2.13;;;;;;;;;;4972441;28;20030;-75
2022/06/13 15:42:02;;;;;;;6.07;2.35;;;;;;;;;;4975337;28;20647;-75
2022/06/13 15:44:30;;;;;;;3.08;1.98;;;;;;;;;;4987444;28;20506;-75
2022/06/13 15:47:01;;;;;;;5.28;2.25;;;;;;;;;;4987991;28;20038;-75
2022/06/13 15:49:40;;;;;;;5.18;2.58;;;;;;;;;;4972036;28;20489;-74
2022/06/13 15:52:10;;;;;;;5.13;2.00;;;;;;;;;;4983776;28;20438;-75
2022/06/13 15:54:43;;;;;;;3.95;1.88;;;;;;;;;;4982358;28;20435;-72
2022/06/13 15:57:15;;;;;;;6.03;2.15;;;;;;;;;;4984062;28;20035;-73
2022/06/13 16:00:05;;;;;;;4.13;2.05;;;;;;;;;;4971138;28;20502;-74
2022/06/13 16:02:45;;;;;;;25.13;4.13;;;;;;;;;;4971377;28;20042;-74
2022/06/13 16:05:17;;;;;;;9.60;2.58;;;;;;;;;;4978145;28;20045;-73
2022/06/13 16:07:51;;;;;;;7.40;2.03;;;;;;;;;;4989349;28;20350;-73
2022/06/13 16:10:20;;;;;;;4.72;1.40;;;;;;;;;;4989601;28;20042;-75